createdAt,value
2022-11-10T00:01:05.080Z,2.40
2022-11-10T00:03:31.892Z,2.50
2022-11-10T00:05:58.635Z,2.40
2022-11-10T00:08:25.237Z,1.90
2022-11-10T00:10:57.766Z,2.05
2022-11-10T00:13:35.236Z,2.00
2022-11-10T00:16:23.318Z,2.00
2022-11-10T00:18:50.770Z,1.85
2022-11-10T00:21:18.482Z,1.63
2022-11-10T00:23:47.696Z,1.73
2022-11-10T00:26:19.893Z,1.77
2022-11-10T00:28:46.650Z,1.75
2022-11-10T00:31:13.526Z,2.08
2022-11-10T00:33:42.932Z,1.95
2022-11-10T00:36:10.201Z,1.83
2022-11-10T00:38:36.785Z,1.65
2022-11-10T00:41:04.453Z,1.90
2022-11-10T00:43:31.425Z,2.10
2022-11-10T00:45:58.501Z,1.60
2022-11-10T00:48:25.544Z,1.50
2022-11-10T00:50:52.129Z,1.60
2022-11-10T00:53:19.107Z,1.60
2022-11-10T00:55:46.151Z,1.65
2022-11-10T00:58:12.895Z,2.10
2022-11-10T01:00:39.566Z,1.80
2022-11-10T01:03:06.244Z,1.60
2022-11-10T01:05:37.145Z,1.77
2022-11-10T01:08:04.128Z,1.88
2022-11-10T01:10:31.055Z,1.80
2022-11-10T01:12:57.958Z,2.58
2022-11-10T01:15:27.792Z,2.40
2022-11-10T01:17:56.202Z,2.03
2022-11-10T01:20:24.083Z,2.20
2022-11-10T01:22:50.696Z,2.55
2022-11-10T01:25:17.356Z,2.17
2022-11-10T01:27:44.101Z,1.80
2022-11-10T01:30:11.239Z,2.00
2022-11-10T01:32:40.265Z,2.00
2022-11-10T01:35:07.597Z,1.70
2022-11-10T01:37:34.190Z,1.58
2022-11-10T01:40:00.898Z,2.50
2022-11-10T01:42:41.527Z,2.47
2022-11-10T01:45:23.131Z,2.28
2022-11-10T01:47:52.732Z,2.00
2022-11-10T01:50:22.103Z,1.80
2022-11-10T01:52:52.269Z,1.90
2022-11-10T01:55:19.106Z,1.75
2022-11-10T01:57:46.111Z,1.92
2022-11-10T02:00:13.089Z,2.35
2022-11-10T02:03:10.719Z,2.72
2022-11-10T02:05:37.498Z,2.45
2022-11-10T02:08:05.273Z,2.38
2022-11-10T02:10:31.842Z,2.60
2022-11-10T02:12:58.547Z,3.10
2022-11-10T02:15:25.546Z,2.80
2022-11-10T02:17:52.334Z,3.22
2022-11-10T02:20:20.717Z,3.25
2022-11-10T02:22:47.715Z,3.13
2022-11-10T02:25:21.519Z,3.00
2022-11-10T02:27:48.450Z,3.75
2022-11-10T02:30:16.231Z,3.50
2022-11-10T02:32:42.794Z,3.80
2022-11-10T02:35:09.418Z,2.90
2022-11-10T02:37:36.162Z,3.10
2022-11-10T02:40:03.275Z,2.80
2022-11-10T02:42:29.915Z,2.60
2022-11-10T02:44:57.556Z,3.00
2022-11-10T02:47:24.142Z,2.55
2022-11-10T02:49:50.783Z,3.00
2022-11-10T02:52:17.370Z,2.83
2022-11-10T02:54:43.996Z,2.88
2022-11-10T02:57:10.609Z,2.90
2022-11-10T02:59:37.362Z,3.45
2022-11-10T03:02:03.953Z,3.67
2022-11-10T03:04:30.568Z,3.03
2022-11-10T03:06:57.181Z,3.15
2022-11-10T03:09:23.790Z,2.83
2022-11-10T03:11:50.412Z,2.72
2022-11-10T03:14:17.047Z,2.30
2022-11-10T03:16:43.664Z,2.28
2022-11-10T03:19:10.270Z,2.10
2022-11-10T03:21:36.817Z,1.90
2022-11-10T03:24:03.918Z,2.00
2022-11-10T03:26:30.516Z,2.33
2022-11-10T03:28:57.217Z,2.38
2022-11-10T03:31:23.841Z,2.25
2022-11-10T03:33:50.418Z,2.28
2022-11-10T03:36:16.981Z,2.17
2022-11-10T03:38:43.594Z,2.15
2022-11-10T03:41:19.173Z,2.22
2022-11-10T03:43:46.974Z,2.30
2022-11-10T03:46:13.566Z,2.97
2022-11-10T03:48:40.187Z,2.40
2022-11-10T03:51:06.981Z,2.75
2022-11-10T03:53:33.733Z,2.55
2022-11-10T03:56:04.988Z,2.67
2022-11-10T04:00:58.888Z,2.90
2022-11-10T04:03:25.673Z,3.55
2022-11-10T04:06:11.257Z,3.15
2022-11-10T04:08:56.869Z,4.00
2022-11-10T04:11:45.738Z,3.85
2022-11-10T04:23:36.624Z,2.50
2022-11-10T04:35:05.554Z,1.90
2022-11-10T04:37:46.280Z,1.50
2022-11-10T04:43:25.241Z,1.60
2022-11-10T04:46:01.373Z,1.30
2022-11-10T04:48:34.313Z,1.85
2022-11-10T04:51:10.761Z,1.80
2022-11-10T04:53:44.981Z,1.90
2022-11-10T04:59:35.145Z,2.20
2022-11-10T05:02:48.212Z,2.30
2022-11-10T05:13:54.919Z,2.83
2022-11-10T05:22:12.691Z,2.83
2022-11-10T05:27:43.193Z,3.08
2022-11-10T05:30:30.755Z,3.70
2022-11-10T05:36:10.542Z,3.83
2022-11-10T05:41:34.446Z,3.08
2022-11-10T05:44:04.902Z,3.45
2022-11-10T05:46:35.935Z,3.00
2022-11-10T05:49:08.663Z,3.05
2022-11-10T05:54:36.191Z,3.63
2022-11-10T05:57:06.052Z,3.33
2022-11-10T06:05:30.886Z,2.92
2022-11-10T06:07:59.052Z,2.85
2022-11-10T06:10:26.377Z,2.60
2022-11-10T06:12:53.313Z,2.40
2022-11-10T06:15:20.911Z,2.38
2022-11-10T06:17:47.530Z,2.28
2022-11-10T06:20:17.075Z,2.70
2022-11-10T06:22:45.125Z,3.15
2022-11-10T06:25:11.903Z,3.33
2022-11-10T06:27:38.611Z,3.35
2022-11-10T06:30:05.803Z,2.90
2022-11-10T06:32:43.934Z,3.20
2022-11-10T06:37:41.130Z,2.88
2022-11-10T06:40:10.610Z,2.80
2022-11-10T06:42:37.284Z,3.28
2022-11-10T06:45:04.320Z,2.90
2022-11-10T06:47:31.069Z,3.33
2022-11-10T06:49:57.741Z,2.70
2022-11-10T06:52:24.357Z,2.40
2022-11-10T06:54:50.925Z,2.38
2022-11-10T06:57:17.523Z,2.80
2022-11-10T06:59:44.132Z,2.40
2022-11-10T07:02:14.519Z,2.67
2022-11-10T07:04:42.757Z,2.58
2022-11-10T07:07:11.237Z,2.83
2022-11-10T07:09:38.387Z,2.83
2022-11-10T07:12:05.688Z,3.00
2022-11-10T07:14:32.433Z,3.42
2022-11-10T07:16:58.996Z,3.55
2022-11-10T07:19:25.549Z,3.70
2022-11-10T07:21:52.222Z,3.60
2022-11-10T07:24:18.824Z,3.50
2022-11-10T07:26:45.529Z,3.28
2022-11-10T07:29:12.275Z,3.65
2022-11-10T07:31:38.865Z,3.28
2022-11-10T07:34:05.437Z,3.25
2022-11-10T07:36:32.257Z,3.28
2022-11-10T07:38:58.964Z,3.60
2022-11-10T07:41:25.581Z,3.30
2022-11-10T07:43:52.233Z,3.40
2022-11-10T07:46:18.893Z,3.15
2022-11-10T07:48:45.589Z,3.90
2022-11-10T07:51:12.192Z,3.38
2022-11-10T07:53:39.871Z,3.30
2022-11-10T07:56:06.912Z,2.92
2022-11-10T07:58:34.224Z,3.13
2022-11-10T08:01:00.918Z,3.20
2022-11-10T08:03:27.728Z,3.30
2022-11-10T08:05:54.348Z,2.60
2022-11-10T08:08:20.935Z,2.78
2022-11-10T08:10:47.547Z,3.13
2022-11-10T08:13:14.281Z,3.75
2022-11-10T08:15:41.460Z,3.25
2022-11-10T08:18:33.937Z,3.00
2022-11-10T08:21:02.959Z,3.03
2022-11-10T08:23:29.923Z,3.90
2022-11-10T08:26:00.856Z,4.95
2022-11-10T08:28:27.597Z,4.82
2022-11-10T08:30:55.223Z,5.60
2022-11-10T08:33:22.618Z,5.28
2022-11-10T08:35:51.599Z,4.28
2022-11-10T08:38:21.404Z,2.40
2022-11-10T08:40:48.450Z,2.65
2022-11-10T08:43:16.160Z,2.00
2022-11-10T08:45:44.287Z,2.38
2022-11-10T08:48:19.317Z,4.07
2022-11-10T08:50:47.104Z,2.60
2022-11-10T08:53:16.654Z,3.05
2022-11-10T08:55:44.118Z,2.88
2022-11-10T08:58:19.522Z,3.40
2022-11-10T09:00:46.402Z,2.60
2022-11-10T09:03:15.548Z,2.33
2022-11-10T09:05:42.949Z,2.20
2022-11-10T09:08:09.999Z,2.35
2022-11-10T09:10:39.265Z,2.25
2022-11-10T09:13:06.531Z,1.70
2022-11-10T09:15:34.825Z,1.67
2022-11-10T09:18:03.289Z,2.28
2022-11-10T09:20:31.722Z,3.05
2022-11-10T09:23:05.642Z,1.90
2022-11-10T09:25:32.838Z,1.92
2022-11-10T09:27:59.521Z,1.30
2022-11-10T09:30:26.446Z,1.73
2022-11-10T09:32:54.607Z,1.33
2022-11-10T09:35:21.519Z,1.00
2022-11-10T09:37:48.167Z,0.95
2022-11-10T09:40:25.218Z,2.25
2022-11-10T09:42:56.544Z,1.77
2022-11-10T09:48:14.887Z,1.10
2022-11-10T09:50:48.368Z,1.23
2022-11-10T09:53:22.968Z,0.90
2022-11-10T09:55:53.281Z,0.90
2022-11-10T09:58:25.508Z,1.00
2022-11-10T10:01:16.979Z,0.93
2022-11-10T10:06:21.911Z,3.08
2022-11-10T10:09:00.661Z,1.33
2022-11-10T10:11:43.728Z,1.10
2022-11-10T10:14:58.183Z,0.98
2022-11-10T10:17:41.149Z,1.00
2022-11-10T10:20:11.683Z,0.88
2022-11-10T10:23:47.204Z,0.80
2022-11-10T10:26:21.981Z,1.10
2022-11-10T10:28:51.123Z,1.00
2022-11-10T10:31:21.400Z,1.00
2022-11-10T10:33:48.797Z,0.82
2022-11-10T10:36:18.540Z,0.80
2022-11-10T10:38:49.321Z,1.20
2022-11-10T10:41:26.236Z,0.88
2022-11-10T10:43:56.207Z,0.80
2022-11-10T10:46:35.670Z,0.80
2022-11-10T10:49:31.304Z,0.80
2022-11-10T10:52:13.192Z,0.90
2022-11-10T10:54:40.468Z,0.75
2022-11-10T10:57:29.361Z,0.85
2022-11-10T11:00:18.271Z,0.73
2022-11-10T11:03:07.155Z,0.60
2022-11-10T11:05:33.771Z,0.90
2022-11-10T11:08:02.715Z,0.70
2022-11-10T11:10:35.474Z,0.85
2022-11-10T11:13:23.208Z,1.20
2022-11-10T11:16:12.218Z,1.35
2022-11-10T11:18:40.108Z,1.40
2022-11-10T11:21:17.517Z,0.80
2022-11-10T11:24:15.987Z,1.00
2022-11-10T11:26:52.287Z,1.00
2022-11-10T11:29:45.501Z,0.77
2022-11-10T11:32:53.534Z,0.90
2022-11-10T11:35:51.798Z,0.80
2022-11-10T11:38:53.620Z,0.77
2022-11-10T11:41:32.409Z,2.00
2022-11-10T11:44:18.265Z,0.90
2022-11-10T11:46:59.782Z,0.88
2022-11-10T11:49:41.510Z,0.90
2022-11-10T11:52:13.301Z,1.20
2022-11-10T11:54:45.982Z,1.13
2022-11-10T11:57:18.388Z,1.20
2022-11-10T12:00:04.256Z,1.33
2022-11-10T12:02:53.461Z,0.88
2022-11-10T12:05:43.970Z,0.82
2022-11-10T12:08:28.880Z,0.73
2022-11-10T12:11:13.640Z,1.05
2022-11-10T12:13:58.635Z,1.20
2022-11-10T12:16:31.778Z,0.90
2022-11-10T12:19:52.153Z,1.05
2022-11-10T12:22:35.561Z,0.90
2022-11-10T12:25:31.069Z,1.00
2022-11-10T12:28:11.467Z,1.00
2022-11-10T12:30:42.098Z,1.00
2022-11-10T12:33:29.849Z,1.00
2022-11-10T12:35:58.282Z,0.98
2022-11-10T12:38:37.697Z,1.10
2022-11-10T12:41:09.632Z,0.90
2022-11-10T12:43:54.873Z,1.00
2022-11-10T12:46:21.495Z,1.08
2022-11-10T12:49:22.489Z,1.38
2022-11-10T12:52:00.800Z,1.08
2022-11-10T12:54:28.857Z,1.13
2022-11-10T12:57:02.055Z,1.10
2022-11-10T12:59:32.409Z,1.20
2022-11-10T13:02:16.840Z,1.30
2022-11-10T13:04:43.662Z,1.20
2022-11-10T13:07:13.621Z,1.23
2022-11-10T13:09:43.783Z,2.55
2022-11-10T13:12:10.306Z,0.80
2022-11-10T13:14:38.543Z,1.02
2022-11-10T13:17:05.674Z,1.35
2022-11-10T13:19:38.852Z,1.00
2022-11-10T13:22:10.394Z,0.82
2022-11-10T13:24:42.414Z,1.00
2022-11-10T13:27:30.316Z,1.00
2022-11-10T13:29:58.443Z,1.42
2022-11-10T13:32:28.533Z,1.00
2022-11-10T13:35:16.073Z,1.30
2022-11-10T13:37:50.208Z,0.90
2022-11-10T13:40:19.853Z,0.95
2022-11-10T13:42:58.357Z,1.10
2022-11-10T13:45:29.770Z,0.80
2022-11-10T13:48:01.173Z,0.88
2022-11-10T13:50:40.040Z,0.80
2022-11-10T13:53:38.094Z,1.00
2022-11-10T13:56:04.774Z,1.40
2022-11-10T13:58:34.379Z,0.93
2022-11-10T14:01:19.350Z,1.10
2022-11-10T14:03:46.042Z,1.15
2022-11-10T14:06:21.426Z,1.27
2022-11-10T14:09:33.446Z,1.30
2022-11-10T14:12:06.327Z,1.10
2022-11-10T14:15:30.474Z,1.13
2022-11-10T14:17:58.293Z,1.83
2022-11-10T14:20:30.741Z,1.13
2022-11-10T14:22:57.780Z,1.20
2022-11-10T14:25:30.523Z,0.95
2022-11-10T14:27:58.575Z,0.90
2022-11-10T14:30:26.707Z,1.00
2022-11-10T14:33:04.543Z,1.30
2022-11-10T14:35:35.423Z,1.40
2022-11-10T14:38:05.035Z,1.60
2022-11-10T14:40:31.789Z,1.40
2022-11-10T14:42:59.902Z,1.50
2022-11-10T14:45:30.117Z,1.50
2022-11-10T14:47:59.759Z,1.48
2022-11-10T14:50:28.914Z,2.05
2022-11-10T14:53:00.753Z,1.92
2022-11-10T14:55:30.780Z,1.80
2022-11-10T14:58:10.413Z,1.60
2022-11-10T15:00:39.253Z,1.80
2022-11-10T15:03:12.142Z,2.00
2022-11-10T15:05:39.413Z,1.63
2022-11-10T15:08:07.044Z,2.25
2022-11-10T15:10:39.486Z,2.83
2022-11-10T15:13:18.910Z,4.30
2022-11-10T15:15:45.562Z,3.42
2022-11-10T15:18:32.446Z,2.55
2022-11-10T15:21:09.827Z,2.17
2022-11-10T15:23:39.045Z,2.92
2022-11-10T15:26:07.036Z,2.67
2022-11-10T15:28:37.104Z,2.30
2022-11-10T15:31:07.536Z,2.17
2022-11-10T15:33:36.948Z,2.70
2022-11-10T15:36:23.451Z,2.30
2022-11-10T15:39:15.443Z,2.15
2022-11-10T15:41:47.157Z,2.20
2022-11-10T15:44:22.481Z,2.03
2022-11-10T15:46:52.970Z,2.28
2022-11-10T15:49:24.244Z,2.30
2022-11-10T15:54:22.691Z,2.55
2022-11-10T15:56:49.357Z,2.40
2022-11-10T15:59:15.945Z,2.45
2022-11-10T16:01:42.709Z,2.83
2022-11-10T16:04:10.841Z,3.40
2022-11-10T16:06:38.622Z,2.67
2022-11-10T16:09:07.284Z,2.55
2022-11-10T16:11:38.091Z,3.42
2022-11-10T16:14:05.768Z,3.20
2022-11-10T16:16:32.441Z,3.47
2022-11-10T16:18:59.348Z,3.00
2022-11-10T16:21:26.157Z,3.05
2022-11-10T16:23:53.325Z,2.67
2022-11-10T16:26:23.965Z,2.85
2022-11-10T16:28:51.013Z,2.90
2022-11-10T16:31:19.730Z,2.60
2022-11-10T16:33:48.244Z,3.10
2022-11-10T16:36:30.456Z,3.45
2022-11-10T16:38:57.879Z,3.25
2022-11-10T16:41:24.680Z,3.22
2022-11-10T16:43:51.348Z,3.50
2022-11-10T16:46:20.798Z,3.08
2022-11-10T16:48:48.723Z,3.60
2022-11-10T16:51:17.885Z,3.55
2022-11-10T16:53:45.444Z,3.58
2022-11-10T16:56:16.762Z,3.97
2022-11-10T17:01:21.338Z,3.50
2022-11-10T17:03:52.250Z,4.18
2022-11-10T17:06:20.027Z,5.10
2022-11-10T17:08:49.205Z,4.97
2022-11-10T17:11:16.481Z,4.70
2022-11-10T17:13:43.243Z,5.40
2022-11-10T17:16:19.822Z,7.03
2022-11-10T17:18:46.956Z,6.88
2022-11-10T17:21:14.716Z,6.25
2022-11-10T17:23:41.392Z,6.10
2022-11-10T17:26:12.675Z,7.05
2022-11-10T17:28:39.246Z,6.32
2022-11-10T17:31:05.850Z,5.78
2022-11-10T17:33:32.598Z,5.55
2022-11-10T17:36:01.151Z,5.82
2022-11-10T17:38:30.656Z,5.57
2022-11-10T17:40:57.296Z,6.28
2022-11-10T17:43:25.074Z,6.15
2022-11-10T17:45:51.944Z,6.93
2022-11-10T17:48:18.772Z,7.53
2022-11-10T17:50:48.620Z,7.07
2022-11-10T17:53:22.348Z,7.28
2022-11-10T17:55:50.156Z,6.63
2022-11-10T17:58:17.629Z,7.18
2022-11-10T18:00:45.215Z,6.88
2022-11-10T18:03:21.872Z,6.82
2022-11-10T18:05:49.242Z,6.50
2022-11-10T18:08:17.700Z,6.68
2022-11-10T18:10:49.874Z,7.18
2022-11-10T18:13:18.447Z,7.22
2022-11-10T18:15:46.370Z,7.28
2022-11-10T18:18:15.242Z,6.82
2022-11-10T18:20:42.279Z,6.97
2022-11-10T18:23:11.556Z,6.32
2022-11-10T18:25:42.588Z,6.45
2022-11-10T18:28:12.164Z,14.43
2022-11-10T18:30:39.160Z,11.07
2022-11-10T18:33:06.844Z,8.82
2022-11-10T18:35:37.781Z,9.93
2022-11-10T18:38:05.313Z,7.82
2022-11-10T18:40:32.140Z,6.70
2022-11-10T18:43:05.889Z,7.00
2022-11-10T18:45:35.772Z,6.88
2022-11-10T18:48:03.990Z,7.65
2022-11-10T18:50:31.237Z,5.50
2022-11-10T18:52:57.976Z,6.32
2022-11-10T18:55:24.765Z,6.72
2022-11-10T18:57:52.881Z,7.13
2022-11-10T19:00:19.832Z,6.57
2022-11-10T19:02:53.768Z,7.95
2022-11-10T19:05:20.422Z,7.60
2022-11-10T19:07:47.119Z,6.45
2022-11-10T19:10:13.791Z,7.28
2022-11-10T19:12:40.463Z,8.48
2022-11-10T19:15:08.063Z,12.13
2022-11-10T19:17:34.688Z,9.90
2022-11-10T19:20:02.856Z,8.32
2022-11-10T19:22:30.015Z,8.60
2022-11-10T19:25:11.813Z,8.25
2022-11-10T19:27:38.696Z,7.75
2022-11-10T19:30:05.806Z,9.90
2022-11-10T19:32:40.515Z,8.98
2022-11-10T19:35:07.335Z,9.23
2022-11-10T19:37:34.971Z,10.23
2022-11-10T19:40:02.539Z,10.85
2022-11-10T19:42:29.147Z,8.10
2022-11-10T19:44:55.751Z,7.50
2022-11-10T19:47:22.577Z,8.48
2022-11-10T19:49:49.255Z,7.43
2022-11-10T19:52:16.051Z,6.80
2022-11-10T19:54:43.542Z,6.60
2022-11-10T19:57:10.239Z,6.47
2022-11-10T19:59:36.863Z,6.68
2022-11-10T20:02:03.748Z,6.35
2022-11-10T20:04:30.397Z,7.15
2022-11-10T20:07:15.549Z,6.22
2022-11-10T20:09:42.529Z,6.40
2022-11-10T20:12:10.308Z,6.60
2022-11-10T20:14:36.899Z,7.30
2022-11-10T20:17:03.569Z,7.15
2022-11-10T20:19:30.124Z,6.90
2022-11-10T20:21:56.741Z,7.63
2022-11-10T20:24:23.379Z,8.10
2022-11-10T20:26:50.337Z,6.47
2022-11-10T20:29:16.936Z,6.57
2022-11-10T20:31:43.745Z,6.57
2022-11-10T20:34:10.715Z,6.32
2022-11-10T20:36:37.342Z,6.22
2022-11-10T20:39:04.048Z,6.78
2022-11-10T20:41:32.864Z,6.95
2022-11-10T20:44:00.825Z,6.40
2022-11-10T20:46:55.679Z,6.05
2022-11-10T20:49:14.109Z,6.32
2022-11-10T20:51:41.651Z,6.85
2022-11-10T20:54:08.753Z,6.20
2022-11-10T20:56:35.572Z,6.40
2022-11-10T20:59:02.446Z,6.38
2022-11-10T21:01:29.156Z,6.53
2022-11-10T21:03:55.866Z,6.38
2022-11-10T21:06:22.541Z,5.32
2022-11-10T21:08:50.662Z,6.60
2022-11-10T21:11:36.303Z,6.72
2022-11-10T21:14:02.900Z,5.60
2022-11-10T21:16:29.560Z,8.45
2022-11-10T21:18:56.841Z,8.18
2022-11-10T21:21:34.285Z,6.47
2022-11-10T21:24:02.074Z,6.38
2022-11-10T21:26:28.903Z,7.47
2022-11-10T21:28:55.580Z,6.13
2022-11-10T21:31:22.210Z,6.38
2022-11-10T21:33:49.123Z,6.93
2022-11-10T21:36:16.146Z,6.93
2022-11-10T21:38:46.316Z,6.63
2022-11-10T21:41:13.189Z,6.57
2022-11-10T21:43:40.375Z,6.28
2022-11-10T21:46:07.615Z,6.45
2022-11-10T21:48:35.071Z,6.80
2022-11-10T21:51:07.005Z,6.78
2022-11-10T21:53:34.685Z,7.45
2022-11-10T21:56:04.216Z,6.85
2022-11-10T21:58:30.940Z,6.47
2022-11-10T22:01:02.203Z,7.47
2022-11-10T22:05:56.047Z,19.00
2022-11-10T22:08:22.730Z,31.33
2022-11-10T22:11:08.044Z,6.70
2022-11-10T22:13:53.367Z,6.80
2022-11-10T22:16:45.488Z,6.55
2022-11-10T22:19:12.154Z,7.13
2022-11-10T22:21:38.769Z,6.50
2022-11-10T22:24:23.661Z,6.57
2022-11-10T22:26:50.898Z,6.63
2022-11-10T22:29:17.500Z,7.45
2022-11-10T22:31:44.153Z,7.60
2022-11-10T22:34:11.069Z,6.35
2022-11-10T22:36:38.998Z,7.68
2022-11-10T22:39:05.942Z,6.80
2022-11-10T22:41:51.150Z,6.95
2022-11-10T22:44:20.327Z,6.95
2022-11-10T22:49:21.121Z,7.68
2022-11-10T22:51:52.893Z,7.70
2022-11-10T22:54:22.815Z,6.97
2022-11-10T22:56:50.900Z,6.83
2022-11-10T22:59:19.042Z,7.00
2022-11-10T23:01:46.454Z,7.03
2022-11-10T23:04:13.751Z,7.75
2022-11-10T23:06:40.462Z,6.97
2022-11-10T23:09:07.511Z,6.20
2022-11-10T23:11:34.473Z,6.70
2022-11-10T23:14:01.317Z,7.50
2022-11-10T23:16:31.699Z,6.70
2022-11-10T23:18:59.029Z,6.77
2022-11-10T23:21:30.486Z,7.90
2022-11-10T23:23:57.196Z,6.40
2022-11-10T23:26:33.845Z,7.63
2022-11-10T23:29:00.825Z,7.75
2022-11-10T23:31:28.461Z,7.50
2022-11-10T23:33:56.126Z,6.67
2022-11-10T23:36:24.742Z,7.18
2022-11-10T23:38:51.916Z,7.10
2022-11-10T23:41:21.087Z,6.15
2022-11-10T23:43:47.791Z,6.20
2022-11-10T23:46:15.200Z,5.95
2022-11-10T23:48:42.023Z,6.55
2022-11-10T23:51:11.097Z,6.80
2022-11-10T23:53:38.201Z,6.57
2022-11-10T23:56:07.737Z,6.17
2022-11-10T23:58:34.400Z,5.73
